Sao Miguel dos Campos, Brazil
Current Conditions -  °F | °C
As of 11:00 AM on Tuesday 27 Jan 2015 (Local Time) from SBMO Reporting Station
Scattered Clouds Scattered Clouds  
Wind Chill: 84°   Ceiling: Unl
Heat Index: 86°   Visibility: 6mi
Dew Point: 66°   Wind: 12mph
Humidity: 55%   Direction: 130°SE
Pressure: 29.97"   Gusts: NA
Location:  9.78°S, 36.09°W
Report Text: SBMO 271400Z 13010KT 9999 SCT020 29/19 Q1015
Loading
Personal Weather Stations






























Interactive Weather Map New forecast layout! Learn more

10-Day Weather Forecast

Advertisements
Track Severe Weather on mobile